Time,TemperatureF,DewpointF,PressureIn,WindDirection,WindDirectionDegrees,WindSpeedMPH,WindSpeedGustMPH,Humidity,HourlyPrecipIn,Conditions,Clouds,dailyrainin,SoftwareType,DateUTC
2013-06-27 00:00:00,71.1,69.3,30.04,SE,145,0.0,2.0,94,0.00,,---,0.12,VWS V14.01,2013-06-27 04:00:00,
2013-06-27 00:01:00,71.1,69.3,30.04,SE,145,0.0,0.0,94,0.00,,---,0.00,VWS V14.01,2013-06-27 04:01:00,
2013-06-27 00:06:00,71.1,69.3,30.05,SE,145,0.0,2.0,94,0.00,,---,0.00,VWS V14.01,2013-06-27 04:06:00,
2013-06-27 00:11:00,71.2,69.4,30.05,SE,145,0.0,1.0,94,0.00,,---,0.00,VWS V14.01,2013-06-27 04:11:00,
2013-06-27 00:16:00,71.5,69.7,30.05,SE,145,0.0,2.0,94,0.00,,---,0.00,VWS V14.01,2013-06-27 04:16:00,
2013-06-27 00:21:00,71.6,70.1,30.05,SE,145,4.0,4.0,95,0.00,,---,0.00,VWS V14.01,2013-06-27 04:21:00,
2013-06-27 00:26:00,71.6,70.1,30.05,SE,145,0.0,4.0,95,0.00,,---,0.00,VWS V14.01,2013-06-27 04:26:00,
2013-06-27 00:31:00,71.6,70.1,30.04,SE,145,0.0,0.0,95,0.00,,---,0.00,VWS V14.01,2013-06-27 04:31:00,
2013-06-27 00:36:00,71.6,70.1,30.04,SE,145,5.0,5.0,95,0.00,,---,0.00,VWS V14.01,2013-06-27 04:36:00,
2013-06-27 00:41:00,71.7,70.2,30.04,SE,145,1.0,2.0,95,0.00,,---,0.00,VWS V14.01,2013-06-27 04:41:00,
2013-06-27 00:46:00,71.9,70.4,30.04,SE,145,0.0,2.0,95,0.00,,---,0.00,VWS V14.01,2013-06-27 04:46:00,
2013-06-27 00:51:00,71.9,70.4,30.04,SE,145,0.0,0.0,95,0.00,,---,0.00,VWS V14.01,2013-06-27 04:51:00,
2013-06-27 00:56:00,71.9,70.4,30.03,SE,145,0.0,1.0,95,0.00,,---,0.00,VWS V14.01,2013-06-27 04:56:00,
2013-06-27 01:01:00,71.9,70.1,30.03,SE,145,0.0,0.0,94,0.00,,---,0.00,VWS V14.01,2013-06-27 05:01:00,
2013-06-27 01:06:00,71.8,70.3,30.03,SE,145,0.0,0.0,95,0.00,,---,0.00,VWS V14.01,2013-06-27 05:06:00,
2013-06-27 01:11:00,71.6,70.1,30.03,SE,145,1.0,1.0,95,0.00,,---,0.00,VWS V14.01,2013-06-27 05:11:00,
2013-06-27 01:16:00,71.5,70.0,30.02,SE,145,2.0,5.0,95,0.00,,---,0.00,VWS V14.01,2013-06-27 05:16:00,
2013-06-27 01:21:00,71.5,70.0,30.02,SSE,157,0.0,0.0,95,0.00,,---,0.00,VWS V14.01,2013-06-27 05:21:00,
2013-06-27 01:26:00,71.4,69.9,30.01,SSE,157,2.0,2.0,95,0.00,,---,0.00,VWS V14.01,2013-06-27 05:26:00,
2013-06-27 01:31:00,71.3,69.8,30.01,SSE,157,1.0,2.0,95,0.00,,---,0.00,VWS V14.01,2013-06-27 05:31:00,
2013-06-27 01:36:00,71.2,69.7,30.01,SSE,157,0.0,2.0,95,0.00,,---,0.00,VWS V14.01,2013-06-27 05:36:00,
2013-06-27 01:41:00,71.1,69.6,30.00,SSE,157,0.0,0.0,95,0.00,,---,0.00,VWS V14.01,2013-06-27 05:41:00,
2013-06-27 01:46:00,71.1,69.6,30.00,SSE,157,0.0,2.0,95,0.00,,---,0.00,VWS V14.01,2013-06-27 05:46:00,
2013-06-27 01:51:00,71.0,69.5,30.00,SSE,157,1.0,2.0,95,0.00,,---,0.00,VWS V14.01,2013-06-27 05:51:00,
2013-06-27 01:56:00,71.0,69.5,30.00,SSE,157,0.0,2.0,95,0.00,,---,0.00,VWS V14.01,2013-06-27 05:56:00,
2013-06-27 02:01:00,70.9,69.4,30.00,SSE,157,0.0,0.0,95,0.00,,---,0.00,VWS V14.01,2013-06-27 06:01:00,
2013-06-27 02:06:00,70.9,69.4,30.00,SSE,157,0.0,1.0,95,0.00,,---,0.00,VWS V14.01,2013-06-27 06:06:00,
2013-06-27 02:11:00,70.9,69.4,30.00,SSE,157,0.0,0.0,95,0.00,,---,0.00,VWS V14.01,2013-06-27 06:11:00,
2013-06-27 02:16:00,70.8,69.3,30.00,SSE,157,0.0,0.0,95,0.00,,---,0.00,VWS V14.01,2013-06-27 06:16:00,
2013-06-27 02:21:00,70.7,69.2,30.00,SSE,157,0.0,0.0,95,0.00,,---,0.00,VWS V14.01,2013-06-27 06:21:00,
2013-06-27 02:26:00,70.7,69.2,29.99,SSE,157,2.0,4.0,95,0.00,,---,0.00,VWS V14.01,2013-06-27 06:26:00,
2013-06-27 02:31:00,70.6,69.1,29.99,SSE,157,0.0,1.0,95,0.00,,---,0.00,VWS V14.01,2013-06-27 06:31:00,
2013-06-27 02:36:00,70.6,69.1,29.99,SSE,157,0.0,1.0,95,0.00,,---,0.00,VWS V14.01,2013-06-27 06:36:00,
2013-06-27 02:41:00,70.5,69.0,29.99,SSE,157,0.0,0.0,95,0.00,,---,0.00,VWS V14.01,2013-06-27 06:41:00,
2013-06-27 02:46:00,70.4,68.9,29.99,SSE,157,0.0,0.0,95,0.00,,---,0.00,VWS V14.01,2013-06-27 06:46:00,
2013-06-27 02:51:00,70.4,68.9,29.99,SSE,157,0.0,0.0,95,0.00,,---,0.00,VWS V14.01,2013-06-27 06:51:00,
2013-06-27 02:56:00,70.3,68.8,29.99,SSE,157,0.0,0.0,95,0.00,,---,0.00,VWS V14.01,2013-06-27 06:56:00,
2013-06-27 03:01:00,70.4,68.9,29.99,SSE,157,0.0,0.0,95,0.00,,---,0.00,VWS V14.01,2013-06-27 07:01:00,
2013-06-27 03:06:00,70.4,68.9,30.00,SSE,157,0.0,0.0,95,0.00,,---,0.00,VWS V14.01,2013-06-27 07:06:00,
2013-06-27 03:11:00,70.4,68.9,30.00,SSE,157,0.0,0.0,95,0.00,,---,0.00,VWS V14.01,2013-06-27 07:11:00,
2013-06-27 03:16:00,70.4,68.9,30.00,SSE,157,0.0,0.0,95,0.00,,---,0.00,VWS V14.01,2013-06-27 07:16:00,
2013-06-27 03:21:00,70.3,68.8,30.00,SSE,157,0.0,0.0,95,0.00,,---,0.00,VWS V14.01,2013-06-27 07:21:00,
2013-06-27 03:26:00,70.4,68.9,30.00,SSE,157,0.0,0.0,95,0.00,,---,0.00,VWS V14.01,2013-06-27 07:26:00,
2013-06-27 03:31:00,70.6,69.1,29.99,SSE,157,0.0,0.0,95,0.00,,---,0.00,VWS V14.01,2013-06-27 07:31:00,
2013-06-27 03:36:00,70.6,69.1,30.00,SSE,157,0.0,0.0,95,0.00,,---,0.00,VWS V14.01,2013-06-27 07:36:00,
2013-06-27 03:41:00,70.5,69.0,30.00,SSE,157,0.0,0.0,95,0.00,,---,0.00,VWS V14.01,2013-06-27 07:41:00,
2013-06-27 03:46:00,70.3,68.8,30.00,SSE,157,0.0,2.0,95,0.00,,---,0.00,VWS V14.01,2013-06-27 07:46:00,
2013-06-27 03:51:00,70.2,68.7,29.99,SSE,157,0.0,0.0,95,0.00,,---,0.00,VWS V14.01,2013-06-27 07:51:00,
2013-06-27 03:56:00,70.3,68.8,30.00,SSE,157,0.0,1.0,95,0.00,,---,0.00,VWS V14.01,2013-06-27 07:56:00,
2013-06-27 04:01:00,70.4,68.9,29.99,SSE,157,0.0,0.0,95,0.00,,---,0.00,VWS V14.01,2013-06-27 08:01:00,
2013-06-27 04:06:00,70.5,69.0,29.99,SSE,157,0.0,0.0,95,0.00,,---,0.00,VWS V14.01,2013-06-27 08:06:00,
2013-06-27 04:11:00,70.5,69.0,29.99,SSE,157,0.0,0.0,95,0.00,,---,0.00,VWS V14.01,2013-06-27 08:11:00,
2013-06-27 04:16:00,70.4,68.9,30.00,SSE,157,0.0,0.0,95,0.00,,---,0.00,VWS V14.01,2013-06-27 08:16:00,
2013-06-27 04:21:00,70.3,68.8,29.99,SSE,157,0.0,0.0,95,0.00,,---,0.00,VWS V14.01,2013-06-27 08:21:00,
2013-06-27 04:26:00,70.3,68.8,30.00,SSE,157,0.0,0.0,95,0.00,,---,0.00,VWS V14.01,2013-06-27 08:26:00,
2013-06-27 04:31:00,70.3,68.8,29.99,SSE,157,0.0,0.0,95,0.00,,---,0.00,VWS V14.01,2013-06-27 08:31:00,
2013-06-27 04:36:00,70.3,68.8,30.00,SSE,157,0.0,0.0,95,0.00,,---,0.00,VWS V14.01,2013-06-27 08:36:00,
2013-06-27 04:41:00,70.2,68.7,30.00,SSE,157,0.0,0.0,95,0.00,,---,0.00,VWS V14.01,2013-06-27 08:41:00,
2013-06-27 04:46:00,70.1,68.6,30.00,SSE,157,0.0,0.0,95,0.00,,---,0.00,VWS V14.01,2013-06-27 08:46:00,
2013-06-27 04:51:00,70.0,68.5,30.00,SSE,157,0.0,0.0,95,0.00,,---,0.00,VWS V14.01,2013-06-27 08:51:00,
2013-06-27 04:56:00,70.0,68.5,30.00,SSE,157,0.0,0.0,95,0.00,,---,0.00,VWS V14.01,2013-06-27 08:56:00,
2013-06-27 05:01:00,69.9,68.4,30.00,SSE,157,0.0,0.0,95,0.00,,---,0.00,VWS V14.01,2013-06-27 09:01:00,
2013-06-27 05:06:00,70.0,68.5,30.00,SSE,157,0.0,0.0,95,0.00,,---,0.00,VWS V14.01,2013-06-27 09:06:00,
2013-06-27 05:11:00,69.9,68.4,30.00,SSE,157,0.0,0.0,95,0.00,,---,0.00,VWS V14.01,2013-06-27 09:11:00,
2013-06-27 05:16:00,69.8,68.3,30.00,SSE,157,0.0,0.0,95,0.00,,---,0.00,VWS V14.01,2013-06-27 09:16:00,
2013-06-27 05:21:00,69.7,68.2,30.00,SSE,157,0.0,0.0,95,0.00,,---,0.00,VWS V14.01,2013-06-27 09:21:00,
2013-06-27 05:26:00,69.6,68.1,30.00,SSE,157,0.0,0.0,95,0.00,,---,0.00,VWS V14.01,2013-06-27 09:26:00,
2013-06-27 05:30:00,69.6,68.1,30.01,SSE,157,0.0,0.0,95,0.00,,---,0.00,VWS V14.01,2013-06-27 09:30:00,
2013-06-27 05:35:00,69.7,68.2,30.00,SSE,157,0.0,0.0,95,0.00,,---,0.00,VWS V14.01,2013-06-27 09:35:00,
2013-06-27 05:40:00,69.7,68.2,30.00,SSE,157,0.0,0.0,95,0.00,,---,0.00,VWS V14.01,2013-06-27 09:40:00,
2013-06-27 05:45:00,69.7,68.2,30.00,SSE,157,0.0,0.0,95,0.00,,---,0.00,VWS V14.01,2013-06-27 09:45:00,
2013-06-27 05:50:00,69.8,68.3,30.00,SSE,157,0.0,0.0,95,0.00,,---,0.00,VWS V14.01,2013-06-27 09:50:00,
2013-06-27 05:55:00,69.8,68.3,30.01,SSE,157,0.0,0.0,95,0.00,,---,0.00,VWS V14.01,2013-06-27 09:55:00,
2013-06-27 06:00:00,69.7,68.2,30.01,SSE,157,0.0,0.0,95,0.00,,---,0.00,VWS V14.01,2013-06-27 10:00:00,
2013-06-27 06:05:00,69.6,68.1,30.01,SSE,157,0.0,0.0,95,0.00,,---,0.00,VWS V14.01,2013-06-27 10:05:00,
2013-06-27 06:10:00,69.5,68.0,30.01,SSE,157,0.0,0.0,95,0.01,,---,0.01,VWS V14.01,2013-06-27 10:10:00,
2013-06-27 06:15:00,69.5,68.0,30.01,SSE,157,0.0,0.0,95,0.01,,---,0.01,VWS V14.01,2013-06-27 10:15:00,
2013-06-27 06:20:00,69.4,67.9,30.01,SSE,157,0.0,0.0,95,0.01,,---,0.01,VWS V14.01,2013-06-27 10:20:00,
2013-06-27 06:25:00,69.7,68.2,30.01,SSE,157,0.0,0.0,95,0.01,,---,0.01,VWS V14.01,2013-06-27 10:25:00,
2013-06-27 06:30:00,69.8,68.3,30.01,SSE,157,0.0,0.0,95,0.01,,---,0.01,VWS V14.01,2013-06-27 10:30:00,
2013-06-27 06:35:00,69.8,68.3,30.01,SSE,157,0.0,0.0,95,0.01,,---,0.01,VWS V14.01,2013-06-27 10:35:00,
2013-06-27 06:40:00,69.7,68.2,30.02,SSE,157,0.0,0.0,95,0.01,,---,0.01,VWS V14.01,2013-06-27 10:40:00,
2013-06-27 06:45:00,69.6,68.1,30.02,SSE,157,0.0,0.0,95,0.01,,---,0.01,VWS V14.01,2013-06-27 10:45:00,
2013-06-27 06:50:00,69.5,68.0,30.01,SSE,157,0.0,0.0,95,0.01,,---,0.01,VWS V14.01,2013-06-27 10:50:00,
2013-06-27 06:51:00,69.5,68.0,30.01,SSE,157,0.0,0.0,95,0.01,,---,0.01,VWS V14.01,2013-06-27 10:51:00,
2013-06-27 06:55:00,69.4,67.9,30.01,SSE,157,0.0,0.0,95,0.01,,---,0.01,VWS V14.01,2013-06-27 10:55:00,
2013-06-27 07:00:00,69.7,68.2,30.01,SSE,157,0.0,0.0,95,0.01,,---,0.01,VWS V14.01,2013-06-27 11:00:00,
2013-06-27 07:05:00,69.9,68.4,30.01,SSE,157,0.0,0.0,95,0.01,,---,0.01,VWS V14.01,2013-06-27 11:05:00,
2013-06-27 07:10:00,70.3,68.8,30.01,SSE,157,0.0,0.0,95,0.00,,---,0.01,VWS V14.01,2013-06-27 11:10:00,
2013-06-27 07:11:00,70.3,68.8,30.01,SSE,157,0.0,0.0,95,0.00,,---,0.01,VWS V14.01,2013-06-27 11:11:00,
2013-06-27 07:16:00,70.5,69.0,30.01,SSE,157,0.0,0.0,95,0.00,,---,0.01,VWS V14.01,2013-06-27 11:16:00,
2013-06-27 07:20:00,71.4,70.2,30.01,SSE,157,0.0,0.0,96,0.00,,---,0.01,VWS V14.01,2013-06-27 11:20:00,
2013-06-27 07:25:00,72.1,70.9,30.01,SSE,157,0.0,0.0,96,0.00,,---,0.01,VWS V14.01,2013-06-27 11:25:00,
2013-06-27 07:30:00,72.6,71.4,30.01,SSE,157,0.0,0.0,96,0.00,,---,0.01,VWS V14.01,2013-06-27 11:30:00,
2013-06-27 07:35:00,73.3,72.1,30.01,SSE,157,0.0,0.0,96,0.00,,---,0.01,VWS V14.01,2013-06-27 11:35:00,
2013-06-27 07:40:00,73.9,72.7,30.01,SSE,157,0.0,0.0,96,0.00,,---,0.01,VWS V14.01,2013-06-27 11:40:00,
2013-06-27 07:45:00,74.2,73.0,30.01,SSE,157,0.0,0.0,96,0.00,,---,0.01,VWS V14.01,2013-06-27 11:45:00,
2013-06-27 07:50:00,74.6,73.4,30.02,SSE,157,0.0,0.0,96,0.00,,---,0.01,VWS V14.01,2013-06-27 11:50:00,
2013-06-27 07:55:00,74.5,73.3,30.02,SSE,157,0.0,0.0,96,0.00,,---,0.01,VWS V14.01,2013-06-27 11:55:00,
2013-06-27 08:00:00,74.4,72.9,30.02,SSE,159,0.0,0.0,95,0.00,,---,0.01,VWS V14.01,2013-06-27 12:00:00,
2013-06-27 08:05:00,74.5,73.0,30.02,SSE,160,1.0,4.0,95,0.00,,---,0.01,VWS V14.01,2013-06-27 12:05:00,
2013-06-27 08:10:00,74.5,73.0,30.02,SSE,164,0.0,4.0,95,0.00,,---,0.01,VWS V14.01,2013-06-27 12:10:00,
2013-06-27 08:15:00,75.0,73.5,30.02,SSE,164,0.0,4.0,95,0.00,,---,0.01,VWS V14.01,2013-06-27 12:15:00,
2013-06-27 08:20:00,75.5,74.0,30.02,SSE,164,0.0,4.0,95,0.00,,---,0.01,VWS V14.01,2013-06-27 12:20:00,
2013-06-27 08:25:00,75.6,74.1,30.02,SSE,164,0.0,2.0,95,0.00,,---,0.01,VWS V14.01,2013-06-27 12:25:00,
2013-06-27 08:30:00,75.9,74.4,30.02,SSE,164,0.0,4.0,95,0.00,,---,0.01,VWS V14.01,2013-06-27 12:30:00,
2013-06-27 08:35:00,76.2,74.0,30.02,SSE,164,1.0,4.0,93,0.00,,---,0.01,VWS V14.01,2013-06-27 12:35:00,
2013-06-27 08:40:00,76.9,74.4,30.03,SSE,164,1.0,5.0,92,0.00,,---,0.01,VWS V14.01,2013-06-27 12:40:00,
2013-06-27 08:45:00,77.7,75.2,30.03,SSE,164,1.0,2.0,92,0.00,,---,0.01,VWS V14.01,2013-06-27 12:45:00,
2013-06-27 08:50:00,78.6,74.8,30.03,SSE,164,1.0,2.0,88,0.00,,---,0.01,VWS V14.01,2013-06-27 12:50:00,
2013-06-27 08:55:00,78.9,74.7,30.03,SSE,165,1.0,4.0,87,0.00,,---,0.01,VWS V14.01,2013-06-27 12:55:00,
2013-06-27 09:00:00,79.6,75.1,30.03,SSE,165,2.0,4.0,86,0.00,,---,0.01,VWS V14.01,2013-06-27 13:00:00,
2013-06-27 09:05:00,80.4,74.8,30.03,SSE,165,0.0,4.0,83,0.00,,---,0.01,VWS V14.01,2013-06-27 13:05:00,
2013-06-27 09:10:00,81.3,75.3,30.03,SSE,164,2.0,4.0,82,0.00,,---,0.01,VWS V14.01,2013-06-27 13:10:00,
2013-06-27 09:15:00,81.0,74.2,30.03,SSE,164,2.0,2.0,80,0.00,,---,0.01,VWS V14.01,2013-06-27 13:15:00,
2013-06-27 09:20:00,81.1,74.7,30.04,SSE,165,1.0,4.0,81,0.00,,---,0.01,VWS V14.01,2013-06-27 13:20:00,
2013-06-27 09:25:00,81.8,75.0,30.03,SSE,165,0.0,6.0,80,0.00,,---,0.01,VWS V14.01,2013-06-27 13:25:00,
2013-06-27 09:30:00,82.1,75.3,30.03,South,182,1.0,6.0,80,0.00,,---,0.01,VWS V14.01,2013-06-27 13:30:00,
2013-06-27 09:35:00,81.9,75.1,30.03,SSW,194,4.0,5.0,80,0.00,,---,0.01,VWS V14.01,2013-06-27 13:35:00,
2013-06-27 09:40:00,82.6,75.8,30.03,SSW,213,2.0,6.0,80,0.00,,---,0.01,VWS V14.01,2013-06-27 13:40:00,
2013-06-27 09:45:00,83.6,76.0,30.03,SW,228,2.0,4.0,78,0.00,,---,0.01,VWS V14.01,2013-06-27 13:45:00,
2013-06-27 09:50:00,83.7,76.1,30.03,SW,228,1.0,5.0,78,0.00,,---,0.01,VWS V14.01,2013-06-27 13:50:00,
2013-06-27 09:55:00,83.6,75.6,30.02,SSW,213,4.0,8.0,77,0.00,,---,0.01,VWS V14.01,2013-06-27 13:55:00,
2013-06-27 10:00:00,83.7,74.9,30.02,SSW,213,0.0,8.0,75,0.00,,---,0.01,VWS V14.01,2013-06-27 14:00:00,
2013-06-27 10:05:00,84.4,76.0,30.02,SSW,213,3.0,5.0,76,0.00,,---,0.01,VWS V14.01,2013-06-27 14:05:00,
2013-06-27 10:10:00,85.0,75.8,30.02,SSW,213,2.0,5.0,74,0.00,,---,0.01,VWS V14.01,2013-06-27 14:10:00,
2013-06-27 10:15:00,85.4,75.3,30.01,SSW,213,3.0,3.0,72,0.00,,---,0.01,VWS V14.01,2013-06-27 14:15:00,
2013-06-27 10:20:00,86.2,76.9,30.01,SSW,211,3.0,6.0,74,0.00,,---,0.01,VWS V14.01,2013-06-27 14:20:00,
2013-06-27 10:25:00,85.9,74.6,30.01,SSW,210,3.0,8.0,69,0.00,,---,0.01,VWS V14.01,2013-06-27 14:25:00,
2013-06-27 10:30:00,85.8,74.9,30.01,SW,219,1.0,8.0,70,0.00,,---,0.01,VWS V14.01,2013-06-27 14:30:00,
2013-06-27 10:35:00,85.8,74.9,30.01,SW,224,0.0,8.0,70,0.00,,---,0.01,VWS V14.01,2013-06-27 14:35:00,
2013-06-27 10:40:00,86.4,76.7,30.01,SSW,206,4.0,8.0,73,0.00,,---,0.01,VWS V14.01,2013-06-27 14:40:00,
2013-06-27 10:45:00,86.3,73.6,30.01,WSW,255,0.0,7.0,66,0.00,,---,0.01,VWS V14.01,2013-06-27 14:45:00,
2013-06-27 10:50:00,85.8,74.0,30.01,SW,220,1.0,7.0,68,0.00,,---,0.01,VWS V14.01,2013-06-27 14:50:00,
2013-06-27 10:55:00,86.2,75.7,30.01,SW,219,3.0,6.0,71,0.00,,---,0.01,VWS V14.01,2013-06-27 14:55:00,
2013-06-27 11:00:00,86.1,73.9,30.01,SW,229,3.0,9.0,67,0.00,,---,0.01,VWS V14.01,2013-06-27 15:00:00,
2013-06-27 11:05:00,86.1,73.0,30.02,SW,234,2.0,8.0,65,0.00,,---,0.01,VWS V14.01,2013-06-27 15:05:00,
2013-06-27 11:10:00,86.4,72.8,30.01,SSW,201,4.0,8.0,64,0.00,,---,0.01,VWS V14.01,2013-06-27 15:10:00,
2013-06-27 11:15:00,86.8,73.6,30.01,SSW,201,2.0,4.0,65,0.00,,---,0.01,VWS V14.01,2013-06-27 15:15:00,
2013-06-27 11:20:00,87.6,73.9,30.01,SSW,204,1.0,7.0,64,0.00,,---,0.01,VWS V14.01,2013-06-27 15:20:00,
2013-06-27 11:25:00,88.1,72.5,30.01,SSE,167,5.0,6.0,60,0.00,,---,0.01,VWS V14.01,2013-06-27 15:25:00,
2013-06-27 11:30:00,88.4,73.7,30.01,South,173,5.0,8.0,62,0.00,,---,0.01,VWS V14.01,2013-06-27 15:30:00,
2013-06-27 11:35:00,88.6,74.9,30.01,South,175,4.0,6.0,64,0.00,,---,0.01,VWS V14.01,2013-06-27 15:35:00,
2013-06-27 11:40:00,88.9,72.7,30.01,WSW,253,7.0,8.0,59,0.00,,---,0.01,VWS V14.01,2013-06-27 15:40:00,
2013-06-27 11:45:00,88.1,72.5,30.01,West,259,5.0,8.0,60,0.00,,---,0.01,VWS V14.01,2013-06-27 15:45:00,
2013-06-27 11:50:00,88.2,73.6,30.01,WSW,241,6.0,8.0,62,0.00,,---,0.01,VWS V14.01,2013-06-27 15:50:00,
2013-06-27 11:55:00,88.0,72.4,30.01,WSW,250,2.0,6.0,60,0.00,,---,0.01,VWS V14.01,2013-06-27 15:55:00,
2013-06-27 12:00:00,88.4,73.7,30.01,WSW,249,4.0,6.0,62,0.00,,---,0.01,VWS V14.01,2013-06-27 16:00:00,
2013-06-27 12:05:00,88.8,72.6,30.01,South,187,7.0,8.0,59,0.00,,---,0.01,VWS V14.01,2013-06-27 16:05:00,
2013-06-27 12:10:00,88.9,72.7,30.01,ESE,107,5.0,8.0,59,0.00,,---,0.01,VWS V14.01,2013-06-27 16:10:00,
2013-06-27 12:15:00,88.8,73.6,30.01,West,277,2.0,6.0,61,0.00,,---,0.01,VWS V14.01,2013-06-27 16:15:00,
2013-06-27 12:20:00,88.6,70.9,30.01,SE,141,1.0,7.0,56,0.00,,---,0.01,VWS V14.01,2013-06-27 16:20:00,
2013-06-27 12:25:00,88.7,73.0,30.01,SW,217,4.0,7.0,60,0.00,,---,0.01,VWS V14.01,2013-06-27 16:25:00,
2013-06-27 12:30:00,89.0,72.8,30.00,SSW,210,4.0,7.0,59,0.00,,---,0.01,VWS V14.01,2013-06-27 16:30:00,
2013-06-27 12:35:00,89.0,72.3,30.00,SSW,199,5.0,5.0,58,0.00,,---,0.01,VWS V14.01,2013-06-27 16:35:00,
2013-06-27 12:40:00,88.9,74.2,30.00,South,188,0.0,8.0,62,0.00,,---,0.01,VWS V14.01,2013-06-27 16:40:00,
2013-06-27 12:45:00,89.5,72.3,30.00,SSE,157,4.0,7.0,57,0.00,,---,0.01,VWS V14.01,2013-06-27 16:45:00,
2013-06-27 12:50:00,90.1,73.3,30.00,SSE,155,2.0,7.0,58,0.00,,---,0.01,VWS V14.01,2013-06-27 16:50:00,
2013-06-27 12:55:00,90.1,76.8,30.00,SW,219,3.0,8.0,65,0.00,,---,0.01,VWS V14.01,2013-06-27 16:55:00,
2013-06-27 13:00:00,90.3,73.5,30.00,South,178,0.0,8.0,58,0.00,,---,0.01,VWS V14.01,2013-06-27 17:00:00,
2013-06-27 13:05:00,90.4,72.1,30.00,SSE,161,5.0,7.0,55,0.00,,---,0.01,VWS V14.01,2013-06-27 17:05:00,
2013-06-27 13:10:00,90.4,73.6,30.00,SSW,203,2.0,7.0,58,0.00,,---,0.01,VWS V14.01,2013-06-27 17:10:00,
2013-06-27 13:15:00,90.4,73.1,30.00,SSE,160,6.0,8.0,57,0.00,,---,0.01,VWS V14.01,2013-06-27 17:15:00,
2013-06-27 13:20:00,89.8,73.1,30.00,SW,223,0.0,8.0,58,0.00,,---,0.01,VWS V14.01,2013-06-27 17:20:00,
2013-06-27 13:25:00,90.2,71.3,30.00,South,188,1.0,8.0,54,0.00,,---,0.01,VWS V14.01,2013-06-27 17:25:00,
2013-06-27 13:30:00,90.2,71.9,29.99,SSE,157,6.0,8.0,55,0.00,,---,0.01,VWS V14.01,2013-06-27 17:30:00,
2013-06-27 13:35:00,90.1,72.3,29.99,SSW,202,0.0,7.0,56,0.00,,---,0.01,VWS V14.01,2013-06-27 17:35:00,
2013-06-27 13:40:00,90.4,72.1,29.99,SSW,200,0.0,7.0,55,0.00,,---,0.01,VWS V14.01,2013-06-27 17:40:00,
2013-06-27 13:45:00,91.1,72.7,29.99,South,181,4.0,5.0,55,0.00,,---,0.01,VWS V14.01,2013-06-27 17:45:00,
2013-06-27 13:50:00,90.6,72.2,29.99,South,188,2.0,9.0,55,0.00,,---,0.01,VWS V14.01,2013-06-27 17:50:00,
2013-06-27 13:55:00,90.8,75.5,29.98,SSW,200,3.0,3.0,61,0.00,,---,0.01,VWS V14.01,2013-06-27 17:55:00,
2013-06-27 14:00:00,91.1,72.2,29.99,SE,138,2.0,6.0,54,0.00,,---,0.01,VWS V14.01,2013-06-27 18:00:00,
2013-06-27 14:05:00,91.3,72.3,29.99,SSE,157,4.0,6.0,54,0.00,,---,0.01,VWS V14.01,2013-06-27 18:05:00,
2013-06-27 14:10:00,90.2,70.2,29.99,WSW,257,2.0,7.0,52,0.00,,---,0.01,VWS V14.01,2013-06-27 18:10:00,
2013-06-27 14:15:00,90.4,70.9,29.98,WSW,257,0.0,2.0,53,0.00,,---,0.01,VWS V14.01,2013-06-27 18:15:00,
2013-06-27 14:20:00,90.9,73.0,29.98,SW,215,8.0,11.0,56,0.00,,---,0.01,VWS V14.01,2013-06-27 18:20:00,
2013-06-27 14:25:00,90.9,73.6,29.98,WSW,254,5.0,9.0,57,0.00,,---,0.01,VWS V14.01,2013-06-27 18:25:00,
2013-06-27 14:30:00,90.6,71.1,29.98,West,268,0.0,9.0,53,0.00,,---,0.01,VWS V14.01,2013-06-27 18:30:00,
2013-06-27 14:35:00,91.4,73.5,29.97,West,268,1.0,4.0,56,0.00,,---,0.01,VWS V14.01,2013-06-27 18:35:00,
2013-06-27 14:40:00,91.8,71.7,29.98,South,178,6.0,8.0,52,0.00,,---,0.01,VWS V14.01,2013-06-27 18:40:00,
2013-06-27 14:45:00,91.9,72.3,29.98,SSW,195,3.0,8.0,53,0.00,,---,0.01,VWS V14.01,2013-06-27 18:45:00,
2013-06-27 14:50:00,91.8,71.1,29.98,SW,215,5.0,9.0,51,0.00,,---,0.01,VWS V14.01,2013-06-27 18:50:00,
2013-06-27 14:55:00,91.8,72.8,29.98,SW,217,4.0,7.0,54,0.00,,---,0.01,VWS V14.01,2013-06-27 18:55:00,
2013-06-27 15:00:00,91.9,72.9,29.98,South,172,5.0,7.0,54,0.00,,---,0.01,VWS V14.01,2013-06-27 19:00:00,
2013-06-27 15:05:00,91.9,71.8,29.97,SSW,203,6.0,9.0,52,0.00,,---,0.01,VWS V14.01,2013-06-27 19:05:00,
2013-06-27 15:10:00,92.3,73.8,29.97,SW,223,0.0,9.0,55,0.00,,---,0.01,VWS V14.01,2013-06-27 19:10:00,
2013-06-27 15:15:00,92.6,70.7,29.97,SSE,154,5.0,9.0,49,0.00,,---,0.01,VWS V14.01,2013-06-27 19:15:00,
2013-06-27 15:20:00,92.2,73.2,29.97,WSW,245,3.0,9.0,54,0.00,,---,0.01,VWS V14.01,2013-06-27 19:20:00,
2013-06-27 15:25:00,91.4,72.4,29.97,WSW,240,2.0,9.0,54,0.00,,---,0.01,VWS V14.01,2013-06-27 19:25:00,
2013-06-27 15:30:00,91.2,70.6,29.96,South,190,0.0,9.0,51,0.00,,---,0.01,VWS V14.01,2013-06-27 19:30:00,
2013-06-27 15:35:00,90.6,70.6,29.96,SSW,192,3.0,5.0,52,0.00,,---,0.01,VWS V14.01,2013-06-27 19:35:00,
2013-06-27 15:40:00,90.2,72.4,29.95,South,190,0.0,5.0,56,0.00,,---,0.01,VWS V14.01,2013-06-27 19:40:00,
2013-06-27 15:45:00,89.9,71.0,29.95,SSW,198,2.0,2.0,54,0.00,,---,0.01,VWS V14.01,2013-06-27 19:45:00,
2013-06-27 15:50:00,89.2,70.9,29.96,SSW,201,0.0,6.0,55,0.00,,---,0.01,VWS V14.01,2013-06-27 19:50:00,
2013-06-27 15:55:00,88.8,72.1,29.96,SSW,201,0.0,1.0,58,0.00,,---,0.01,VWS V14.01,2013-06-27 19:55:00,
2013-06-27 16:00:00,88.7,71.5,29.95,SSW,201,0.0,2.0,57,0.00,,---,0.01,VWS V14.01,2013-06-27 20:00:00,
2013-06-27 16:05:00,88.7,73.5,29.95,SSW,201,0.0,1.0,61,0.00,,---,0.01,VWS V14.01,2013-06-27 20:05:00,
2013-06-27 16:10:00,88.8,72.6,29.95,SSW,201,0.0,2.0,59,0.00,,---,0.01,VWS V14.01,2013-06-27 20:10:00,
2013-06-27 16:15:00,88.7,72.5,29.94,SSW,201,2.0,2.0,59,0.00,,---,0.01,VWS V14.01,2013-06-27 20:15:00,
2013-06-27 16:20:00,88.6,72.9,29.94,SSW,201,0.0,2.0,60,0.00,,---,0.01,VWS V14.01,2013-06-27 20:20:00,
2013-06-27 16:25:00,88.6,71.9,29.94,SSW,201,0.0,1.0,58,0.00,,---,0.01,VWS V14.01,2013-06-27 20:25:00,
2013-06-27 16:30:00,88.6,71.9,29.93,SSW,201,0.0,3.0,58,0.00,,---,0.01,VWS V14.01,2013-06-27 20:30:00,
2013-06-27 16:35:00,88.6,73.4,29.93,NW,317,6.0,6.0,61,0.00,,---,0.01,VWS V14.01,2013-06-27 20:35:00,
2013-06-27 16:40:00,87.1,73.4,29.93,NNW,328,2.0,9.0,64,0.00,,---,0.01,VWS V14.01,2013-06-27 20:40:00,
2013-06-27 16:45:00,86.0,73.8,29.93,WNW,285,4.0,10.0,67,0.00,,---,0.01,VWS V14.01,2013-06-27 20:45:00,
2013-06-27 16:50:00,85.6,74.7,29.92,NW,315,4.0,10.0,70,0.00,,---,0.01,VWS V14.01,2013-06-27 20:50:00,
2013-06-27 16:55:00,85.6,74.3,29.93,NW,309,8.0,8.0,69,0.00,,---,0.01,VWS V14.01,2013-06-27 20:55:00,
2013-06-27 17:00:00,85.5,74.2,29.93,WNW,282,6.0,10.0,69,0.00,,---,0.01,VWS V14.01,2013-06-27 21:00:00,
2013-06-27 17:06:00,85.6,74.3,29.93,NW,306,3.0,9.0,69,0.00,,---,0.01,VWS V14.01,2013-06-27 21:06:00,
2013-06-27 17:11:00,85.7,74.8,29.93,WNW,300,5.0,7.0,70,0.00,,---,0.01,VWS V14.01,2013-06-27 21:11:00,
2013-06-27 17:16:00,85.4,74.1,29.93,NW,319,5.0,11.0,69,0.00,,---,0.01,VWS V14.01,2013-06-27 21:16:00,
2013-06-27 17:21:00,85.6,75.1,29.93,NNW,348,3.0,6.0,71,0.00,,---,0.01,VWS V14.01,2013-06-27 21:21:00,
2013-06-27 17:26:00,86.1,74.8,29.93,North,355,5.0,9.0,69,0.00,,---,0.01,VWS V14.01,2013-06-27 21:26:00,
2013-06-27 17:31:00,86.8,75.4,29.93,NNW,346,3.0,6.0,69,0.00,,---,0.01,VWS V14.01,2013-06-27 21:31:00,
2013-06-27 17:36:00,87.1,75.3,29.93,WNW,285,4.0,10.0,68,0.00,,---,0.01,VWS V14.01,2013-06-27 21:36:00,
2013-06-27 17:41:00,87.0,75.6,29.94,NW,325,2.0,4.0,69,0.00,,---,0.01,VWS V14.01,2013-06-27 21:41:00,
2013-06-27 17:46:00,86.7,74.4,29.93,WNW,287,3.0,5.0,67,0.00,,---,0.01,VWS V14.01,2013-06-27 21:46:00,
2013-06-27 17:51:00,86.9,75.9,29.93,NW,306,2.0,3.0,70,0.00,,---,0.01,VWS V14.01,2013-06-27 21:51:00,
2013-06-27 17:56:00,87.7,74.9,29.93,WNW,300,4.0,6.0,66,0.00,,---,0.01,VWS V14.01,2013-06-27 21:56:00,
2013-06-27 18:02:00,87.8,74.1,29.93,West,281,1.0,2.0,64,0.00,,---,0.01,VWS V14.01,2013-06-27 22:02:00,
2013-06-27 18:07:00,88.2,75.0,29.93,WNW,294,1.0,4.0,65,0.00,,---,0.01,VWS V14.01,2013-06-27 22:07:00,
2013-06-27 18:12:00,89.2,75.4,29.93,NNE,24,4.0,4.0,64,0.00,,---,0.01,VWS V14.01,2013-06-27 22:12:00,
2013-06-27 18:17:00,89.9,75.1,29.93,NNE,24,3.0,5.0,62,0.00,,---,0.01,VWS V14.01,2013-06-27 22:17:00,
2013-06-27 18:22:00,90.3,74.5,29.93,SW,214,0.0,3.0,60,0.00,,---,0.01,VWS V14.01,2013-06-27 22:22:00,
2013-06-27 18:27:00,90.3,75.0,29.92,NNE,21,0.0,4.0,61,0.00,,---,0.01,VWS V14.01,2013-06-27 22:27:00,
2013-06-27 18:32:00,89.7,74.5,29.92,NNE,19,3.0,6.0,61,0.00,,---,0.01,VWS V14.01,2013-06-27 22:32:00,
2013-06-27 18:37:00,89.1,74.4,29.92,NNW,344,4.0,7.0,62,0.00,,---,0.01,VWS V14.01,2013-06-27 22:37:00,
2013-06-27 18:42:00,88.6,74.9,29.93,North,5,4.0,7.0,64,0.00,,---,0.01,VWS V14.01,2013-06-27 22:42:00,
2013-06-27 18:47:00,88.3,74.6,29.93,North,5,5.0,7.0,64,0.00,,---,0.01,VWS V14.01,2013-06-27 22:47:00,
2013-06-27 18:53:00,87.8,74.6,29.93,North,350,4.0,5.0,65,0.00,,---,0.01,VWS V14.01,2013-06-27 22:53:00,
2013-06-27 18:58:00,87.2,74.5,29.93,NNE,13,3.0,6.0,66,0.00,,---,0.01,VWS V14.01,2013-06-27 22:58:00,
2013-06-27 19:03:00,86.6,73.9,29.93,NNW,345,5.0,6.0,66,0.00,,---,0.01,VWS V14.01,2013-06-27 23:03:00,
2013-06-27 19:08:00,86.0,74.2,29.94,NNW,346,3.0,6.0,68,0.00,,---,0.01,VWS V14.01,2013-06-27 23:08:00,
2013-06-27 19:13:00,85.6,74.3,29.94,NNW,346,2.0,2.0,69,0.00,,---,0.01,VWS V14.01,2013-06-27 23:13:00,
2013-06-27 19:18:00,85.4,74.5,29.93,NNW,346,2.0,4.0,70,0.00,,---,0.01,VWS V14.01,2013-06-27 23:18:00,
2013-06-27 19:23:00,85.2,74.3,29.93,NNW,346,1.0,2.0,70,0.00,,---,0.01,VWS V14.01,2013-06-27 23:23:00,
2013-06-27 19:28:00,84.9,74.4,29.93,NNW,346,2.0,4.0,71,0.00,,---,0.01,VWS V14.01,2013-06-27 23:28:00,
2013-06-27 19:33:00,84.5,74.1,29.93,NNW,346,3.0,4.0,71,0.00,,---,0.01,VWS V14.01,2013-06-27 23:33:00,
2013-06-27 19:38:00,84.5,74.5,29.93,NNW,346,0.0,4.0,72,0.00,,---,0.01,VWS V14.01,2013-06-27 23:38:00,
2013-06-27 19:43:00,84.9,74.9,29.93,NNW,346,2.0,2.0,72,0.00,,---,0.01,VWS V14.01,2013-06-27 23:43:00,
2013-06-27 19:48:00,85.4,75.3,29.93,NNW,346,3.0,4.0,72,0.00,,---,0.01,VWS V14.01,2013-06-27 23:48:00,
2013-06-27 19:53:00,85.9,75.0,29.93,NNW,346,2.0,3.0,70,0.00,,---,0.01,VWS V14.01,2013-06-27 23:53:00,
2013-06-27 19:58:00,86.1,74.8,29.92,NNW,346,1.0,4.0,69,0.00,,---,0.01,VWS V14.01,2013-06-27 23:58:00,
2013-06-27 20:03:00,85.9,75.0,29.92,NNW,346,0.0,2.0,70,0.00,,---,0.01,VWS V14.01,2013-06-28 00:03:00,
2013-06-27 20:08:00,85.6,74.7,29.92,NNW,346,0.0,2.0,70,0.00,,---,0.01,VWS V14.01,2013-06-28 00:08:00,
2013-06-27 20:14:00,85.2,74.7,29.92,NNW,346,0.0,0.0,71,0.00,,---,0.01,VWS V14.01,2013-06-28 00:14:00,
2013-06-27 20:19:00,84.9,74.9,29.92,NNW,346,0.0,0.0,72,0.00,,---,0.01,VWS V14.01,2013-06-28 00:19:00,
2013-06-27 20:24:00,84.5,74.5,29.92,NNW,346,0.0,0.0,72,0.00,,---,0.01,VWS V14.01,2013-06-28 00:24:00,
2013-06-27 20:29:00,83.9,74.7,29.92,NNW,346,0.0,0.0,74,0.00,,---,0.01,VWS V14.01,2013-06-28 00:29:00,
2013-06-27 20:34:00,83.5,74.8,29.92,NNW,346,0.0,0.0,75,0.00,,---,0.01,VWS V14.01,2013-06-28 00:34:00,
2013-06-27 20:39:00,83.2,74.5,29.92,NNW,346,0.0,0.0,75,0.00,,---,0.01,VWS V14.01,2013-06-28 00:39:00,
2013-06-27 20:44:00,82.7,74.4,29.93,NNW,346,0.0,0.0,76,0.00,,---,0.01,VWS V14.01,2013-06-28 00:44:00,
2013-06-27 20:49:00,82.3,74.4,29.93,NNW,346,0.0,1.0,77,0.00,,---,0.01,VWS V14.01,2013-06-28 00:49:00,
2013-06-27 20:54:00,82.2,74.3,29.94,SSE,150,7.0,7.0,77,0.00,,---,0.01,VWS V14.01,2013-06-28 00:54:00,
2013-06-27 20:59:00,82.1,74.6,29.94,SSE,165,4.0,7.0,78,0.00,,---,0.01,VWS V14.01,2013-06-28 00:59:00,
2013-06-27 21:04:00,82.0,74.5,29.94,SE,146,6.0,8.0,78,0.00,,---,0.01,VWS V14.01,2013-06-28 01:04:00,
2013-06-27 21:09:00,82.0,74.1,29.94,SSE,166,1.0,8.0,77,0.00,,---,0.01,VWS V14.01,2013-06-28 01:09:00,
2013-06-27 21:14:00,81.9,74.4,29.94,South,190,5.0,9.0,78,0.00,,---,0.01,VWS V14.01,2013-06-28 01:14:00,
2013-06-27 21:19:00,81.7,73.4,29.94,SSW,202,4.0,11.0,76,0.00,,---,0.01,VWS V14.01,2013-06-28 01:19:00,
2013-06-27 21:24:00,81.5,73.2,29.95,SSW,194,1.0,9.0,76,0.00,,---,0.01,VWS V14.01,2013-06-28 01:24:00,
2013-06-27 21:29:00,81.4,73.1,29.94,South,173,4.0,9.0,76,0.00,,---,0.01,VWS V14.01,2013-06-28 01:29:00,
2013-06-27 21:34:00,81.3,73.4,29.94,South,191,0.0,5.0,77,0.00,,---,0.01,VWS V14.01,2013-06-28 01:34:00,
2013-06-27 21:39:00,81.1,73.6,29.94,South,191,1.0,5.0,78,0.00,,---,0.01,VWS V14.01,2013-06-28 01:39:00,
2013-06-27 21:44:00,80.8,73.7,29.94,SSW,210,4.0,6.0,79,0.00,,---,0.01,VWS V14.01,2013-06-28 01:44:00,
2013-06-27 21:50:00,80.4,73.7,29.94,SSW,205,1.0,6.0,80,0.00,,---,0.01,VWS V14.01,2013-06-28 01:50:00,
2013-06-27 21:55:00,80.1,73.4,29.94,SW,217,2.0,6.0,80,0.00,,---,0.01,VWS V14.01,2013-06-28 01:55:00,
2013-06-27 22:00:00,79.8,73.4,29.95,SW,217,0.0,6.0,81,0.00,,---,0.01,VWS V14.01,2013-06-28 02:00:00,
2013-06-27 22:05:00,79.6,73.3,29.95,SW,217,1.0,2.0,81,0.00,,---,0.01,VWS V14.01,2013-06-28 02:05:00,
2013-06-27 22:10:00,79.4,73.1,29.95,SW,217,0.0,4.0,81,0.00,,---,0.01,VWS V14.01,2013-06-28 02:10:00,
2013-06-27 22:15:00,79.2,73.2,29.94,SW,217,1.0,5.0,82,0.00,,---,0.01,VWS V14.01,2013-06-28 02:15:00,
2013-06-27 22:20:00,78.9,72.9,29.95,SW,217,0.0,5.0,82,0.00,,---,0.01,VWS V14.01,2013-06-28 02:20:00,
2013-06-27 22:25:00,78.8,72.8,29.95,SW,217,0.0,1.0,82,0.00,,---,0.01,VWS V14.01,2013-06-28 02:25:00,
2013-06-27 22:30:00,78.7,73.1,29.94,SW,217,0.0,1.0,83,0.00,,---,0.01,VWS V14.01,2013-06-28 02:30:00,
2013-06-27 22:35:00,78.5,72.9,29.94,SW,217,0.0,0.0,83,0.00,,---,0.01,VWS V14.01,2013-06-28 02:35:00,
2013-06-27 22:40:00,78.3,72.7,29.94,SW,217,0.0,0.0,83,0.00,,---,0.01,VWS V14.01,2013-06-28 02:40:00,
2013-06-27 22:45:00,78.0,72.8,29.94,SW,217,3.0,3.0,84,0.00,,---,0.01,VWS V14.01,2013-06-28 02:45:00,
2013-06-27 22:50:00,77.9,72.7,29.94,SW,217,0.0,3.0,84,0.00,,---,0.01,VWS V14.01,2013-06-28 02:50:00,
2013-06-27 22:55:00,77.8,72.6,29.94,SW,217,0.0,0.0,84,0.00,,---,0.01,VWS V14.01,2013-06-28 02:55:00,
2013-06-27 23:00:00,77.6,72.4,29.94,SW,217,0.0,0.0,84,0.00,,---,0.01,VWS V14.01,2013-06-28 03:00:00,
2013-06-27 23:05:00,77.5,72.6,29.95,SW,217,0.0,0.0,85,0.00,,---,0.01,VWS V14.01,2013-06-28 03:05:00,
2013-06-27 23:10:00,77.3,72.4,29.95,SW,217,0.0,0.0,85,0.00,,---,0.01,VWS V14.01,2013-06-28 03:10:00,
2013-06-27 23:15:00,77.1,72.2,29.95,SW,217,0.0,0.0,85,0.00,,---,0.01,VWS V14.01,2013-06-28 03:15:00,
2013-06-27 23:21:00,76.9,72.4,29.95,SW,217,0.0,0.0,86,0.00,,---,0.01,VWS V14.01,2013-06-28 03:21:00,
2013-06-27 23:26:00,76.7,72.2,29.95,SW,217,0.0,0.0,86,0.00,,---,0.01,VWS V14.01,2013-06-28 03:26:00,
2013-06-27 23:31:00,76.6,72.4,29.95,SW,217,0.0,0.0,87,0.00,,---,0.01,VWS V14.01,2013-06-28 03:31:00,
2013-06-27 23:36:00,76.4,72.6,29.95,SW,217,0.0,0.0,88,0.00,,---,0.01,VWS V14.01,2013-06-28 03:36:00,
2013-06-27 23:41:00,76.3,72.5,29.95,SW,217,0.0,0.0,88,0.00,,---,0.01,VWS V14.01,2013-06-28 03:41:00,
2013-06-27 23:46:00,76.2,72.4,29.95,SW,217,1.0,2.0,88,0.00,,---,0.01,VWS V14.01,2013-06-28 03:46:00,
2013-06-27 23:51:00,76.1,72.6,29.95,SW,217,1.0,2.0,89,0.00,,---,0.01,VWS V14.01,2013-06-28 03:51:00,
2013-06-27 23:56:00,76.1,72.6,29.95,SW,217,0.0,2.0,89,0.00,,---,0.01,VWS V14.01,2013-06-28 03:56:00,